createdAt,value
2023-11-25T00:00:38.742Z,100012.69
2023-11-25T00:03:04.961Z,100004.09
2023-11-25T00:05:37.630Z,100014.56
2023-11-25T00:08:03.831Z,100024.16
2023-11-25T00:10:30.073Z,100019.09
2023-11-25T00:12:56.283Z,100030.25
2023-11-25T00:18:06.465Z,100029.38
2023-11-25T00:20:32.686Z,100035.53
2023-11-25T00:22:58.893Z,100045.03
2023-11-25T00:25:25.099Z,100042.22
2023-11-25T00:27:51.361Z,100061.81
2023-11-25T00:30:17.573Z,100073.78
2023-11-25T00:32:43.795Z,100063.47
2023-11-25T00:35:10.176Z,100065.19
2023-11-25T00:37:39.353Z,100077.09
2023-11-25T00:40:05.630Z,100072.91
2023-11-25T00:42:31.872Z,100080.66
2023-11-25T00:44:58.090Z,100079.94
2023-11-25T00:47:24.407Z,100097.22
2023-11-25T00:49:50.654Z,100094.69
2023-11-25T00:52:16.908Z,100100.66
2023-11-25T00:54:43.133Z,100110.09
2023-11-25T00:57:09.320Z,100109.09
2023-11-25T00:59:35.476Z,100109.09
2023-11-25T01:02:01.856Z,100120.16
2023-11-25T01:04:28.081Z,100121.75
2023-11-25T01:06:54.295Z,100127.88
2023-11-25T01:09:20.533Z,100127.13
2023-11-25T01:11:46.749Z,100126.97
2023-11-25T01:14:12.950Z,100122.78
2023-11-25T01:16:39.300Z,100131.63
2023-11-25T01:19:05.638Z,100132.50
2023-11-25T01:21:31.860Z,100136.88
2023-11-25T01:23:58.055Z,100134.41
2023-11-25T01:26:24.316Z,100142.25
2023-11-25T01:28:50.500Z,100144.03
2023-11-25T01:31:16.769Z,100145.88
2023-11-25T01:33:43.101Z,100145.94
2023-11-25T01:36:09.345Z,100145.06
2023-11-25T01:38:35.539Z,100152.91
2023-11-25T01:41:03.736Z,100153.91
2023-11-25T01:43:31.121Z,100160.03
2023-11-25T01:46:03.097Z,100167.03
2023-11-25T01:48:29.328Z,100165.34
2023-11-25T01:50:55.486Z,100172.41
2023-11-25T01:53:21.712Z,100170.78
2023-11-25T01:55:47.947Z,100168.34
2023-11-25T01:58:14.167Z,100167.56
2023-11-25T02:00:40.365Z,100183.94
2023-11-25T02:03:06.669Z,100170.34
2023-11-25T02:05:32.980Z,100176.28
2023-11-25T02:07:59.226Z,100170.34
2023-11-25T02:10:25.421Z,100164.44
2023-11-25T02:12:51.592Z,100170.50
2023-11-25T02:15:20.603Z,100168.72
2023-11-25T02:17:46.865Z,100167.03
2023-11-25T02:20:14.195Z,100167.94
2023-11-25T02:22:40.488Z,100185.97
2023-11-25T02:25:06.746Z,100179.09
2023-11-25T02:27:33.013Z,100180.78
2023-11-25T02:29:59.261Z,100185.94
2023-11-25T02:32:35.290Z,100178.16
2023-11-25T02:35:01.571Z,100181.56
2023-11-25T02:37:27.825Z,100185.72
2023-11-25T02:39:54.131Z,100180.56
2023-11-25T02:42:20.375Z,100189.94
2023-11-25T02:44:46.576Z,100195.06
2023-11-25T02:47:12.805Z,100196.03
2023-11-25T02:49:39.067Z,100202.06
2023-11-25T02:52:05.256Z,100202.06
2023-11-25T02:54:31.448Z,100202.09
2023-11-25T02:56:57.690Z,100206.34
2023-11-25T02:59:23.873Z,100209.75
2023-11-25T03:01:50.710Z,100214.09
2023-11-25T03:04:17.234Z,100220.03
2023-11-25T03:06:43.501Z,100227.00
2023-11-25T03:09:09.750Z,100233.81
2023-11-25T03:11:35.956Z,100233.84
2023-11-25T03:14:02.166Z,100234.81
2023-11-25T03:16:28.468Z,100240.97
2023-11-25T03:18:54.704Z,100252.19
2023-11-25T03:21:20.940Z,100248.09
2023-11-25T03:23:47.175Z,100247.25
2023-11-25T03:26:13.701Z,100249.06
2023-11-25T03:28:39.999Z,100250.84
2023-11-25T03:31:06.223Z,100247.53
2023-11-25T03:33:32.404Z,100250.22
2023-11-25T03:35:58.630Z,100247.72
2023-11-25T03:38:24.823Z,100243.50
2023-11-25T03:40:51.055Z,100247.00
2023-11-25T03:43:17.319Z,100242.81
2023-11-25T03:45:43.496Z,100253.97
2023-11-25T03:48:09.744Z,100251.53
2023-11-25T03:50:36.048Z,100260.13
2023-11-25T03:53:02.299Z,100260.09
2023-11-25T03:55:28.549Z,100253.38
2023-11-25T03:57:54.808Z,100254.16
2023-11-25T04:00:20.969Z,100246.47
2023-11-25T04:02:47.352Z,100252.56
2023-11-25T04:05:13.744Z,100247.50
2023-11-25T04:07:39.967Z,100245.84
2023-11-25T04:10:06.198Z,100249.34
2023-11-25T04:12:32.446Z,100240.84
2023-11-25T04:14:58.626Z,100256.25
2023-11-25T04:20:15.423Z,100258.91
2023-11-25T04:22:42.032Z,100258.97
2023-11-25T04:25:08.323Z,100261.56
2023-11-25T04:27:34.585Z,100246.25
2023-11-25T04:30:00.824Z,100247.09
2023-11-25T04:32:27.107Z,100250.56
2023-11-25T04:34:53.380Z,100246.25
2023-11-25T04:37:19.626Z,100247.88
2023-11-25T04:39:45.972Z,100238.41
2023-11-25T04:42:12.378Z,100240.13
2023-11-25T04:44:39.586Z,100241.78
2023-11-25T04:47:09.993Z,100242.59
2023-11-25T05:17:12.601Z,100228.84
2023-11-25T07:15:18.441Z,100387.13
2023-11-25T07:18:07.284Z,100381.13
2023-11-25T07:20:33.501Z,100394.81
2023-11-25T07:22:59.753Z,100395.69
2023-11-25T07:25:25.961Z,100399.09
2023-11-25T07:27:52.154Z,100404.28
2023-11-25T07:30:18.460Z,100405.09
2023-11-25T07:32:44.713Z,100405.84
2023-11-25T07:35:10.917Z,100405.84
2023-11-25T07:37:37.186Z,100416.03
2023-11-25T07:40:03.455Z,100424.72
2023-11-25T07:42:29.709Z,100417.84
2023-11-25T07:44:55.960Z,100416.81
2023-11-25T07:47:22.289Z,100420.19
2023-11-25T07:49:48.637Z,100428.78
2023-11-25T07:52:14.930Z,100429.53
2023-11-25T07:54:41.170Z,100421.72
2023-11-25T07:57:07.482Z,100421.66
2023-11-25T07:59:33.722Z,100418.16
2023-11-25T08:02:00.045Z,100423.28
2023-11-25T08:04:26.401Z,100412.75
2023-11-25T08:06:52.682Z,100409.19
2023-11-25T08:09:18.951Z,100412.69
2023-11-25T08:11:45.179Z,100402.09
2023-11-25T08:14:11.388Z,100410.38
2023-11-25T08:16:37.832Z,100424.81
2023-11-25T08:19:04.106Z,100426.25
2023-11-25T08:21:30.357Z,100422.50
2023-11-25T08:23:57.827Z,100417.22
2023-11-25T08:26:24.168Z,100410.72
2023-11-25T08:28:56.102Z,100406.09
2023-11-25T08:31:22.471Z,100409.03
2023-11-25T08:33:48.794Z,100398.31
2023-11-25T08:36:15.065Z,100399.88
2023-11-25T08:38:41.387Z,100385.91
2023-11-25T08:41:09.719Z,100393.13
2023-11-25T08:43:35.996Z,100390.97
2023-11-25T08:46:02.322Z,100379.50
2023-11-25T08:48:28.579Z,100388.25
2023-11-25T08:50:54.792Z,100383.81
2023-11-25T08:53:21.001Z,100385.59
2023-11-25T08:55:47.334Z,100396.16
2023-11-25T08:58:13.586Z,100403.44
2023-11-25T09:00:39.786Z,100406.78
2023-11-25T09:03:06.084Z,100414.75
2023-11-25T09:05:32.494Z,100414.28
2023-11-25T09:07:58.766Z,100405.38
2023-11-25T09:10:25.053Z,100402.81
2023-11-25T09:12:51.311Z,100402.94
2023-11-25T09:15:17.564Z,100397.03
2023-11-25T09:17:46.345Z,100393.81
2023-11-25T09:20:12.600Z,100398.38
2023-11-25T09:22:38.859Z,100401.84
2023-11-25T09:25:05.163Z,100402.59
2023-11-25T09:27:31.365Z,100404.84
2023-11-25T09:29:57.637Z,100403.91
2023-11-25T09:32:24.112Z,100395.56
2023-11-25T09:34:52.138Z,100399.88
2023-11-25T09:37:18.602Z,100405.78
2023-11-25T09:39:44.876Z,100395.81
2023-11-25T09:42:11.101Z,100396.50
2023-11-25T09:44:39.677Z,100404.28
2023-11-25T09:47:06.128Z,100394.97
2023-11-25T09:49:32.390Z,100401.03
2023-11-25T09:51:58.635Z,100390.72
2023-11-25T09:54:24.863Z,100395.13
2023-11-25T09:56:51.111Z,100402.94
2023-11-25T09:59:17.572Z,100404.88
2023-11-25T10:01:43.882Z,100397.22
2023-11-25T10:04:12.140Z,100391.34
2023-11-25T10:06:38.438Z,100392.31
2023-11-25T10:09:04.631Z,100391.41
2023-11-25T10:11:30.863Z,100379.50
2023-11-25T10:13:57.112Z,100380.38
2023-11-25T10:16:23.341Z,100375.34
2023-11-25T10:18:49.587Z,100369.22
2023-11-25T10:21:15.790Z,100358.03
2023-11-25T10:23:44.063Z,100359.66
2023-11-25T10:26:10.280Z,100357.03
2023-11-25T10:28:36.561Z,100353.59
2023-11-25T10:31:02.833Z,100358.63
2023-11-25T10:33:29.223Z,100353.38
2023-11-25T10:35:55.569Z,100345.63
2023-11-25T10:38:21.883Z,100354.06
2023-11-25T10:40:48.198Z,100342.75
2023-11-25T10:43:14.560Z,100337.41
2023-11-25T10:45:40.868Z,100334.47
2023-11-25T10:48:07.148Z,100334.31
2023-11-25T10:50:33.398Z,100331.53
2023-11-25T10:52:59.707Z,100323.88
2023-11-25T10:55:26.059Z,100323.69
2023-11-25T10:57:52.269Z,100320.31
2023-11-25T11:00:18.474Z,100318.44
2023-11-25T11:02:44.842Z,100311.38
2023-11-25T11:05:11.123Z,100311.75
2023-11-25T11:07:37.362Z,100312.34
2023-11-25T11:10:03.594Z,100305.56
2023-11-25T11:12:29.878Z,100304.56
2023-11-25T11:14:56.089Z,100305.50
2023-11-25T11:17:22.348Z,100307.84
2023-11-25T11:19:48.613Z,100298.34
2023-11-25T11:22:14.855Z,100300.69
2023-11-25T11:24:41.100Z,100296.47
2023-11-25T11:27:07.329Z,100298.09
2023-11-25T11:29:33.554Z,100294.38
2023-11-25T11:31:59.897Z,100290.13
2023-11-25T11:34:26.308Z,100292.09
2023-11-25T11:36:52.577Z,100281.69
2023-11-25T11:39:18.884Z,100287.69
2023-11-25T11:41:45.122Z,100283.44
2023-11-25T11:44:11.466Z,100284.09
2023-11-25T11:46:37.789Z,100286.78
2023-11-25T11:49:04.033Z,100281.41
2023-11-25T11:51:30.288Z,100284.66
2023-11-25T11:53:56.512Z,100283.84
2023-11-25T11:56:22.811Z,100268.44
2023-11-25T11:58:49.059Z,100266.72
2023-11-25T12:01:15.297Z,100273.41
2023-11-25T12:03:41.627Z,100258.91
2023-11-25T12:06:07.881Z,100259.06
2023-11-25T12:08:34.122Z,100259.00
2023-11-25T12:11:00.401Z,100256.47
2023-11-25T12:13:26.636Z,100257.28
2023-11-25T12:15:52.873Z,100254.88
2023-11-25T12:18:19.096Z,100260.06
2023-11-25T12:20:45.319Z,100259.91
2023-11-25T12:23:11.537Z,100247.78
2023-11-25T12:25:37.776Z,100262.19
2023-11-25T12:28:04.019Z,100252.78
2023-11-25T12:30:30.290Z,100246.63
2023-11-25T12:32:56.796Z,100250.09
2023-11-25T12:35:23.101Z,100233.47
2023-11-25T12:38:00.938Z,100241.19
2023-11-25T12:40:34.131Z,100240.97
2023-11-25T12:43:00.360Z,100233.22
2023-11-25T12:45:26.585Z,100229.56
2023-11-25T12:47:52.865Z,100230.66
2023-11-25T12:50:19.129Z,100216.84
2023-11-25T12:52:45.458Z,100216.66
2023-11-25T12:55:11.725Z,100214.91
2023-11-25T12:57:37.930Z,100207.91
2023-11-25T13:00:04.113Z,100213.72
2023-11-25T13:02:30.457Z,100206.78
2023-11-25T13:04:56.832Z,100202.34
2023-11-25T13:07:23.325Z,100204.28
2023-11-25T13:12:33.050Z,100196.44
2023-11-25T13:14:59.350Z,100194.38
2023-11-25T13:17:25.869Z,100198.03
2023-11-25T13:19:52.261Z,100197.06
2023-11-25T13:22:18.527Z,100208.22
2023-11-25T13:24:44.779Z,100199.28
2023-11-25T13:27:10.987Z,100200.19
2023-11-25T13:29:40.225Z,100192.44
2023-11-25T13:32:06.519Z,100190.66
2023-11-25T13:34:32.793Z,100183.63
2023-11-25T13:36:59.381Z,100189.81
2023-11-25T13:39:33.038Z,100187.88
2023-11-25T13:41:59.313Z,100185.03
2023-11-25T13:44:25.540Z,100181.03
2023-11-25T13:46:51.835Z,100185.28
2023-11-25T13:49:18.127Z,100182.84
2023-11-25T13:51:47.286Z,100183.47
2023-11-25T13:54:13.489Z,100184.19
2023-11-25T13:56:39.728Z,100183.44
2023-11-25T13:59:06.003Z,100176.75
2023-11-25T14:01:32.429Z,100180.19
2023-11-25T14:03:58.751Z,100180.53
2023-11-25T14:06:24.999Z,100176.16
2023-11-25T14:08:51.187Z,100180.72
2023-11-25T14:11:19.900Z,100183.28
2023-11-25T14:13:46.170Z,100178.16
2023-11-25T14:16:12.402Z,100182.59
2023-11-25T14:18:38.629Z,100186.22
2023-11-25T14:21:04.808Z,100170.63
2023-11-25T14:23:31.034Z,100175.91
2023-11-25T14:25:57.284Z,100169.84
2023-11-25T14:28:23.520Z,100171.00
2023-11-25T14:30:49.750Z,100165.03
2023-11-25T14:33:16.147Z,100167.66
2023-11-25T14:35:42.484Z,100170.25
2023-11-25T14:38:08.788Z,100160.72
2023-11-25T14:40:35.130Z,100157.97
2023-11-25T14:43:01.436Z,100160.34
2023-11-25T14:45:27.650Z,100152.47
2023-11-25T14:47:54.034Z,100159.63
2023-11-25T14:50:20.415Z,100158.78
2023-11-25T14:52:46.742Z,100162.28
2023-11-25T14:55:13.113Z,100160.56
2023-11-25T14:57:39.310Z,100158.00
2023-11-25T15:00:05.522Z,100156.03
2023-11-25T15:02:31.817Z,100164.06
2023-11-25T15:04:58.163Z,100161.53
2023-11-25T15:07:24.393Z,100157.25
2023-11-25T15:09:50.647Z,100154.72
2023-11-25T15:12:16.872Z,100150.31
2023-11-25T15:14:43.076Z,100153.47
2023-11-25T15:17:09.569Z,100149.97
2023-11-25T15:19:35.900Z,100154.63
2023-11-25T15:22:02.126Z,100146.00
2023-11-25T15:24:28.372Z,100144.31
2023-11-25T15:26:54.603Z,100151.28
2023-11-25T15:29:20.852Z,100147.59
2023-11-25T15:31:47.252Z,100148.47
2023-11-25T15:34:14.076Z,100152.31
2023-11-25T15:36:40.413Z,100150.63
2023-11-25T15:39:06.643Z,100157.38
2023-11-25T15:41:33.391Z,100152.13
2023-11-25T15:43:59.610Z,100152.22
2023-11-25T15:46:25.868Z,100151.50
2023-11-25T15:48:52.052Z,100159.34
2023-11-25T15:51:18.291Z,100162.56
2023-11-25T15:53:44.587Z,100164.53
2023-11-25T15:56:10.884Z,100164.63
2023-11-25T15:58:37.118Z,100163.00
2023-11-25T16:01:03.339Z,100162.03
2023-11-25T16:03:29.593Z,100169.00
2023-11-25T16:05:55.850Z,100157.94
2023-11-25T16:08:22.027Z,100155.31
2023-11-25T16:10:48.434Z,100163.00
2023-11-25T16:13:14.680Z,100156.00
2023-11-25T16:15:40.906Z,100156.97
2023-11-25T16:18:07.181Z,100151.63
2023-11-25T16:20:33.410Z,100154.97
2023-11-25T16:22:59.687Z,100157.81
2023-11-25T16:25:25.981Z,100169.75
2023-11-25T16:27:52.217Z,100169.69
2023-11-25T16:30:18.446Z,100168.94
2023-11-25T16:32:44.790Z,100168.94
2023-11-25T16:35:11.206Z,100171.88
2023-11-25T16:37:37.469Z,100164.06
2023-11-25T16:40:03.720Z,100167.63
2023-11-25T16:42:29.943Z,100166.56
2023-11-25T16:44:56.177Z,100161.44
2023-11-25T16:47:22.432Z,100162.94
2023-11-25T16:49:48.673Z,100162.94
2023-11-25T16:52:14.873Z,100158.53
2023-11-25T16:54:41.047Z,100163.47
2023-11-25T16:57:07.297Z,100164.22
2023-11-25T16:59:33.544Z,100177.97
2023-11-25T17:01:59.813Z,100175.31
2023-11-25T17:04:26.336Z,100178.78
2023-11-25T17:06:52.637Z,100171.84
2023-11-25T17:09:18.827Z,100174.13
2023-11-25T17:11:45.003Z,100175.00
2023-11-25T17:14:11.216Z,100178.50
2023-11-25T17:16:37.657Z,100185.47
2023-11-25T17:19:03.947Z,100190.66
2023-11-25T17:21:30.184Z,100176.06
2023-11-25T17:23:56.395Z,100182.84
2023-11-25T17:26:22.599Z,100182.06
2023-11-25T17:28:48.872Z,100182.06
2023-11-25T17:31:15.124Z,100193.13
2023-11-25T17:33:41.399Z,100181.91
2023-11-25T17:36:07.621Z,100183.59
2023-11-25T17:38:33.842Z,100191.50
2023-11-25T17:41:00.195Z,100194.38
2023-11-25T17:43:26.464Z,100189.53
2023-11-25T17:45:52.725Z,100193.25
2023-11-25T17:48:19.019Z,100195.97
2023-11-25T17:50:45.229Z,100193.50
2023-11-25T17:53:14.631Z,100190.00
2023-11-25T17:55:41.303Z,100191.72
2023-11-25T17:58:07.523Z,100186.44
2023-11-25T18:00:33.766Z,100188.88
2023-11-25T18:03:00.100Z,100195.78
2023-11-25T18:05:26.375Z,100197.44
2023-11-25T18:07:52.656Z,100183.63
2023-11-25T18:10:18.854Z,100187.97
2023-11-25T18:12:45.087Z,100197.56
2023-11-25T18:15:11.270Z,100189.63
2023-11-25T18:17:37.650Z,100200.75
2023-11-25T18:20:04.091Z,100195.56
2023-11-25T18:22:30.375Z,100191.25
2023-11-25T18:24:56.601Z,100199.00
2023-11-25T18:27:22.848Z,100203.28
2023-11-25T18:29:49.096Z,100207.56
2023-11-25T18:32:15.364Z,100205.63
2023-11-25T18:34:41.653Z,100212.59
2023-11-25T18:37:07.899Z,100212.81
2023-11-25T18:39:34.106Z,100211.78
2023-11-25T18:42:00.320Z,100210.97
2023-11-25T18:44:28.031Z,100213.44
2023-11-25T18:46:54.441Z,100217.66
2023-11-25T18:49:20.730Z,100213.50
2023-11-25T18:51:46.942Z,100216.03
2023-11-25T18:54:13.225Z,100215.13
2023-11-25T18:56:39.438Z,100222.88
2023-11-25T18:59:06.982Z,100221.34
2023-11-25T19:01:33.346Z,100223.09
2023-11-25T19:03:59.639Z,100206.97
2023-11-25T19:06:25.841Z,100219.91
2023-11-25T19:08:52.126Z,100222.66
2023-11-25T19:11:18.343Z,100216.16
2023-11-25T19:13:44.554Z,100219.13
2023-11-25T19:16:13.638Z,100220.97
2023-11-25T19:18:40.031Z,100215.06
2023-11-25T19:21:06.282Z,100222.09
2023-11-25T19:23:32.458Z,100214.44
2023-11-25T19:26:00.723Z,100223.09
2023-11-25T19:28:27.038Z,100213.56
2023-11-25T19:30:54.504Z,100226.44
2023-11-25T19:33:22.135Z,100221.38
2023-11-25T19:35:48.405Z,100229.84
2023-11-25T19:38:14.684Z,100231.56
2023-11-25T19:40:41.077Z,100230.72
2023-11-25T19:43:07.271Z,100236.75
2023-11-25T19:45:33.509Z,100229.84
2023-11-25T19:47:59.783Z,100243.69
2023-11-25T19:50:26.373Z,100247.16
2023-11-25T19:52:52.629Z,100247.22
2023-11-25T19:55:21.468Z,100236.88
2023-11-25T19:57:47.671Z,100234.41
2023-11-25T20:00:13.872Z,100239.75
2023-11-25T20:02:40.200Z,100241.66
2023-11-25T20:05:06.527Z,100248.28
2023-11-25T20:07:32.797Z,100253.41
2023-11-25T20:09:59.064Z,100262.00
2023-11-25T20:12:25.359Z,100259.44
2023-11-25T20:14:51.690Z,100255.03
2023-11-25T20:17:17.911Z,100254.97
2023-11-25T20:19:44.188Z,100249.81
2023-11-25T20:22:10.459Z,100256.47
2023-11-25T20:24:36.668Z,100259.97
2023-11-25T20:27:02.993Z,100264.22
2023-11-25T20:29:29.260Z,100256.31
2023-11-25T20:31:55.478Z,100262.31
2023-11-25T20:34:21.754Z,100264.22
2023-11-25T20:36:47.995Z,100266.84
2023-11-25T20:39:14.275Z,100269.53
2023-11-25T20:41:40.496Z,100269.66
2023-11-25T20:44:06.808Z,100275.66
2023-11-25T20:46:33.236Z,100278.34
2023-11-25T20:48:59.412Z,100294.81
2023-11-25T20:51:25.677Z,100307.88
2023-11-25T20:53:51.936Z,100329.53
2023-11-25T20:56:18.229Z,100336.38
2023-11-25T20:58:44.526Z,100343.97
2023-11-25T21:01:10.772Z,100336.88
2023-11-25T21:03:37.102Z,100332.81
2023-11-25T21:06:03.379Z,100320.34
2023-11-25T21:08:29.670Z,100312.84
2023-11-25T21:10:56.802Z,100309.53
2023-11-25T21:13:23.470Z,100304.44
2023-11-25T21:15:49.729Z,100295.91
2023-11-25T21:18:15.996Z,100295.97
2023-11-25T21:20:42.225Z,100291.78
2023-11-25T21:23:08.454Z,100290.03
2023-11-25T21:25:34.674Z,100276.31
2023-11-25T21:28:00.895Z,100278.88
2023-11-25T21:30:27.148Z,100274.72
2023-11-25T21:32:53.373Z,100272.22
2023-11-25T21:35:19.686Z,100266.25
2023-11-25T21:37:46.131Z,100270.53
2023-11-25T21:40:20.456Z,100267.13
2023-11-25T21:42:49.823Z,100256.91
2023-11-25T21:45:16.051Z,100263.00
2023-11-25T21:47:42.304Z,100265.72
2023-11-25T21:50:08.649Z,100264.06
2023-11-25T21:52:37.110Z,100267.66
2023-11-25T21:55:03.576Z,100266.84
2023-11-25T21:57:29.784Z,100272.06
2023-11-25T21:59:55.999Z,100277.31
2023-11-25T22:02:22.481Z,100287.75
2023-11-25T22:04:48.933Z,100297.34
2023-11-25T22:07:15.206Z,100300.19
2023-11-25T22:09:41.637Z,100317.41
2023-11-25T22:12:07.875Z,100316.75
2023-11-25T22:14:34.257Z,100294.66
2023-11-25T22:17:00.532Z,100296.47
2023-11-25T22:19:33.133Z,100301.75
2023-11-25T22:21:59.368Z,100295.84
2023-11-25T22:24:25.557Z,100294.09
2023-11-25T22:26:54.727Z,100291.59
2023-11-25T22:29:25.230Z,100294.25
2023-11-25T22:31:51.542Z,100297.81
2023-11-25T22:34:17.813Z,100301.34
2023-11-25T22:36:44.622Z,100304.91
2023-11-25T22:39:10.901Z,100307.56
2023-11-25T22:41:37.115Z,100311.09
2023-11-25T22:44:03.428Z,100317.22
2023-11-25T22:46:29.706Z,100317.22
2023-11-25T22:48:55.964Z,100322.47
2023-11-25T22:51:22.162Z,100323.38
2023-11-25T22:53:48.414Z,100325.16
2023-11-25T22:56:14.636Z,100326.91
2023-11-25T22:58:40.827Z,100337.16
2023-11-25T23:01:07.077Z,100343.13
2023-11-25T23:03:33.575Z,100342.22
2023-11-25T23:05:59.968Z,100341.41
2023-11-25T23:08:26.655Z,100341.47
2023-11-25T23:10:52.903Z,100345.84
2023-11-25T23:13:19.157Z,100346.72
2023-11-25T23:15:45.352Z,100346.81
2023-11-25T23:18:11.563Z,100355.41
2023-11-25T23:20:37.794Z,100357.16
2023-11-25T23:23:04.068Z,100360.66
2023-11-25T23:25:30.343Z,100362.44
2023-11-25T23:27:56.573Z,100370.22
2023-11-25T23:30:22.827Z,100376.31
2023-11-25T23:32:49.065Z,100366.97
2023-11-25T23:35:15.266Z,100368.75
2023-11-25T23:37:41.475Z,100376.50
2023-11-25T23:40:07.675Z,100374.84
2023-11-25T23:42:33.915Z,100373.19
2023-11-25T23:45:00.230Z,100374.88
2023-11-25T23:47:26.614Z,100369.78
2023-11-25T23:49:52.856Z,100385.19
2023-11-25T23:52:19.138Z,100382.63
2023-11-25T23:54:45.372Z,100383.56
2023-11-25T23:57:11.605Z,100385.31
2023-11-25T23:59:37.825Z,100382.75
